Time;durP1;ratioP1;P1;durP2;ratioP2;P2;SDS_P1;SDS_P2;PMS_P1;PMS_P2;Temp;Humidity;BMP_temperature;BMP_pressure;BME280_temperature;BME280_humidity;BME280_pressure;Samples;Min_cycle;Max_cycle;Signal;HPM_P1;HPM_P2
2022/03/01 00:00:08;;;;;;;9.97;4.97;;;6.10;90.30;;;;;;7388238;19;20151;-76
2022/03/01 00:02:34;;;;;;;8.53;5.03;;;6.10;90.70;;;;;;7388837;19;20174;-77
2022/03/01 00:05:00;;;;;;;10.60;5.00;;;6.20;90.80;;;;;;7387638;19;20131;-77
2022/03/01 00:07:26;;;;;;;11.37;4.83;;;5.70;91.60;;;;;;7386617;19;20151;-77
2022/03/01 00:09:52;;;;;;;9.80;5.17;;;5.70;91.60;;;;;;7387694;19;20470;-76
2022/03/01 00:12:18;;;;;;;10.33;5.60;;;5.90;91.50;;;;;;7387105;19;20134;-76
2022/03/01 00:14:44;;;;;;;10.63;5.63;;;6.00;91.40;;;;;;7390315;19;20146;-76
2022/03/01 00:17:09;;;;;;;11.30;5.53;;;6.00;91.20;;;;;;7387704;19;20150;-75
2022/03/01 00:19:35;;;;;;;10.73;5.80;;;6.10;91.10;;;;;;7389913;19;20455;-76
2022/03/01 00:22:01;;;;;;;13.07;4.87;;;5.90;91.20;;;;;;7387429;19;20134;-76
2022/03/01 00:24:27;;;;;;;7.73;4.47;;;5.70;91.70;;;;;;7388677;19;20130;-76
2022/03/01 00:26:52;;;;;;;10.80;5.67;;;5.70;92.00;;;;;;7388071;19;20240;-77
2022/03/01 00:29:18;;;;;;;10.03;5.57;;;5.60;92.40;;;;;;7386573;19;20127;-77
2022/03/01 00:31:44;;;;;;;11.30;5.50;;;5.60;92.80;;;;;;7388494;19;20127;-77
2022/03/01 00:34:10;;;;;;;9.33;5.20;;;5.70;92.50;;;;;;7386873;19;20126;-76
2022/03/01 00:36:36;;;;;;;11.07;5.80;;;5.70;92.60;;;;;;7386591;19;20130;-77
2022/03/01 00:39:06;;;;;;;9.27;5.00;;;5.50;93.10;;;;;;7387212;19;20114;-77
2022/03/01 00:41:32;;;;;;;9.47;5.83;;;5.50;92.50;;;;;;7386731;19;20123;-75
2022/03/01 00:43:58;;;;;;;10.70;5.30;;;5.50;92.40;;;;;;7388388;19;20123;-77
2022/03/01 00:46:26;;;;;;;12.93;5.97;;;5.60;92.50;;;;;;7385096;19;20537;-77
2022/03/01 00:48:57;;;;;;;12.27;6.10;;;5.60;92.10;;;;;;7392768;19;20145;-76
2022/03/01 00:51:23;;;;;;;9.93;5.47;;;5.70;92.40;;;;;;7393978;19;20165;-76
2022/03/01 00:53:50;;;;;;;12.00;5.53;;;5.70;92.50;;;;;;7393686;19;20670;-76
2022/03/01 00:56:16;;;;;;;8.23;4.77;;;5.70;92.30;;;;;;7390985;19;20126;-77
2022/03/01 00:58:42;;;;;;;11.83;5.10;;;5.40;92.80;;;;;;7394907;19;20138;-75
2022/03/01 01:01:08;;;;;;;11.83;5.33;;;5.00;93.00;;;;;;7394619;19;20143;-75
2022/03/01 01:03:34;;;;;;;11.10;5.50;;;5.00;93.60;;;;;;7395123;19;20127;-76
2022/03/01 01:06:00;;;;;;;10.03;5.07;;;5.20;93.50;;;;;;7392693;19;20602;-77
2022/03/01 01:08:25;;;;;;;9.27;5.37;;;5.20;93.40;;;;;;7392892;19;20130;-78
2022/03/01 01:10:51;;;;;;;9.60;5.13;;;5.30;93.30;;;;;;7391316;19;20824;-76
2022/03/01 01:13:17;;;;;;;10.67;5.70;;;5.30;93.10;;;;;;7394202;19;20159;-76
2022/03/01 01:15:44;;;;;;;10.43;5.50;;;5.20;93.30;;;;;;7387975;19;20233;-75
2022/03/01 01:18:09;;;;;;;10.13;5.43;;;4.70;93.80;;;;;;7393214;19;20142;-76
2022/03/01 01:20:36;;;;;;;10.30;5.20;;;4.60;94.20;;;;;;7396210;19;20603;-76
2022/03/01 01:23:02;;;;;;;8.80;5.27;;;4.70;94.30;;;;;;7392753;19;20119;-77
2022/03/01 01:25:28;;;;;;;9.50;5.80;;;4.80;94.20;;;;;;7394381;19;20171;-75
2022/03/01 01:27:56;;;;;;;9.83;5.30;;;4.60;94.40;;;;;;7394568;19;20162;-76
2022/03/01 01:30:25;;;;;;;11.37;5.80;;;4.80;94.30;;;;;;7391694;19;20640;-78
2022/03/01 01:32:51;;;;;;;10.27;5.10;;;4.80;94.00;;;;;;7392672;19;20150;-76
2022/03/01 01:35:20;;;;;;;8.83;5.30;;;4.90;93.90;;;;;;7395184;19;20167;-76
2022/03/01 01:37:47;;;;;;;10.40;5.33;;;4.80;94.20;;;;;;7394174;19;20158;-76
2022/03/01 01:40:16;;;;;;;9.73;5.30;;;4.60;94.60;;;;;;7394356;19;20147;-78
2022/03/01 01:42:43;;;;;;;11.03;5.53;;;4.50;94.50;;;;;;7396378;19;20796;-77
2022/03/01 01:45:09;;;;;;;8.23;4.53;;;4.40;95.00;;;;;;7393670;19;20135;-76
2022/03/01 01:47:36;;;;;;;11.10;5.47;;;4.40;95.20;;;;;;7389873;19;20161;-76
2022/03/01 01:50:04;;;;;;;9.43;5.50;;;4.70;94.80;;;;;;7396974;19;20167;-76
2022/03/01 01:52:30;;;;;;;11.50;5.67;;;4.50;95.10;;;;;;7390995;19;20206;-75
2022/03/01 01:54:56;;;;;;;8.80;5.20;;;4.60;94.80;;;;;;7390969;19;20710;-78
2022/03/01 01:57:24;;;;;;;10.90;5.17;;;4.40;95.00;;;;;;7390775;19;20159;-76
2022/03/01 01:59:51;;;;;;;9.97;5.17;;;4.50;95.30;;;;;;7390782;19;20466;-74
2022/03/01 02:02:19;;;;;;;10.50;5.40;;;4.40;95.30;;;;;;7395966;19;20138;-76
2022/03/01 02:04:46;;;;;;;10.57;5.53;;;4.50;95.40;;;;;;7392870;19;20146;-76
2022/03/01 02:07:13;;;;;;;8.83;5.17;;;4.60;95.30;;;;;;7393738;19;20162;-76
2022/03/01 02:09:39;;;;;;;10.20;5.60;;;4.70;95.00;;;;;;7394067;19;20139;-77
2022/03/01 02:12:05;;;;;;;9.87;4.87;;;4.50;95.20;;;;;;7390789;19;20206;-77
2022/03/01 02:14:33;;;;;;;9.40;5.03;;;4.40;95.40;;;;;;7389621;19;20606;-76
2022/03/01 02:17:01;;;;;;;9.50;4.87;;;4.40;95.40;;;;;;7391120;19;20127;-76
2022/03/01 02:19:27;;;;;;;8.77;5.60;;;4.40;95.20;;;;;;7390525;19;20169;-76
2022/03/01 02:21:55;;;;;;;9.27;5.17;;;4.50;95.40;;;;;;7391130;19;20143;-78
2022/03/01 02:24:23;;;;;;;8.50;4.80;;;4.50;95.30;;;;;;7390491;19;20127;-78
2022/03/01 02:26:52;;;;;;;9.07;5.57;;;4.50;95.10;;;;;;7389612;19;20225;-76
2022/03/01 02:29:18;;;;;;;8.57;4.80;;;4.60;94.90;;;;;;7392088;19;20513;-77
2022/03/01 02:31:44;;;;;;;11.30;5.13;;;4.60;94.70;;;;;;7390377;19;20133;-76
2022/03/01 02:34:10;;;;;;;14.20;5.17;;;4.70;94.80;;;;;;7393948;19;20123;-76
2022/03/01 02:36:35;;;;;;;7.13;4.87;;;4.60;94.80;;;;;;7387221;19;20202;-78
2022/03/01 02:39:02;;;;;;;11.87;5.53;;;4.60;94.80;;;;;;7389610;19;20118;-75
2022/03/01 02:41:28;;;;;;;9.33;4.53;;;4.60;94.70;;;;;;7392418;19;20134;-77
2022/03/01 02:43:53;;;;;;;10.20;5.00;;;4.40;95.00;;;;;;7389671;19;20547;-78
2022/03/01 02:46:19;;;;;;;9.67;5.13;;;4.20;95.10;;;;;;7387496;19;20154;-76
2022/03/01 02:48:45;;;;;;;9.67;5.20;;;4.20;95.40;;;;;;7390263;19;20231;-76
2022/03/01 02:51:11;;;;;;;9.57;5.53;;;4.30;95.10;;;;;;7392422;19;20186;-78
2022/03/01 02:53:36;;;;;;;10.23;5.00;;;4.30;95.40;;;;;;7389124;19;20155;-77
2022/03/01 02:56:03;;;;;;;10.13;4.70;;;4.30;95.40;;;;;;7388576;19;20131;-76
2022/03/01 02:58:29;;;;;;;10.43;5.17;;;4.00;95.50;;;;;;7390586;19;20130;-76
2022/03/01 03:00:55;;;;;;;9.00;4.83;;;4.10;95.80;;;;;;7388767;19;20127;-75
2022/03/01 03:03:21;;;;;;;8.47;5.27;;;4.20;95.60;;;;;;7388703;19;20134;-76
2022/03/01 03:05:47;;;;;;;8.17;4.70;;;4.40;95.20;;;;;;7392963;19;20142;-76
2022/03/01 03:08:13;;;;;;;8.13;4.63;;;4.40;95.10;;;;;;7388846;19;20131;-78
2022/03/01 03:10:39;;;;;;;8.37;5.10;;;4.50;95.10;;;;;;7389272;19;20153;-77
2022/03/01 03:13:05;;;;;;;10.17;5.73;;;4.10;95.50;;;;;;7391158;19;20146;-76
2022/03/01 03:15:31;;;;;;;10.67;5.33;;;4.30;95.50;;;;;;7381907;19;20233;-77
2022/03/01 03:17:58;;;;;;;9.53;5.30;;;4.30;95.40;;;;;;7382768;19;20150;-77
2022/03/01 03:20:24;;;;;;;10.50;4.90;;;4.30;95.20;;;;;;7384149;19;20158;-77
2022/03/01 03:22:51;;;;;;;9.07;5.07;;;4.40;95.20;;;;;;7387814;19;20130;-77
2022/03/01 03:25:17;;;;;;;10.83;5.13;;;4.30;95.10;;;;;;7384175;19;20151;-78
2022/03/01 03:27:43;;;;;;;11.30;4.83;;;4.20;95.70;;;;;;7384025;19;20142;-76
2022/03/01 03:30:10;;;;;;;9.30;5.43;;;4.10;95.80;;;;;;7387695;19;20141;-76
2022/03/01 03:32:36;;;;;;;11.83;5.70;;;4.30;95.40;;;;;;7387918;19;20141;-77
2022/03/01 03:35:03;;;;;;;8.23;5.27;;;4.40;95.20;;;;;;7387724;19;20485;-76
2022/03/01 03:37:29;;;;;;;8.40;5.33;;;4.40;95.30;;;;;;7387119;19;20186;-77
2022/03/01 03:39:55;;;;;;;9.03;5.13;;;4.40;95.00;;;;;;7389433;19;20127;-77
2022/03/01 03:42:21;;;;;;;9.33;4.83;;;4.40;94.80;;;;;;7394292;19;20122;-76
2022/03/01 03:44:47;;;;;;;9.37;5.03;;;4.40;95.00;;;;;;7387180;19;20537;-78
2022/03/01 03:47:13;;;;;;;12.00;5.53;;;4.40;94.90;;;;;;7387966;19;20455;-77
2022/03/01 03:49:39;;;;;;;11.83;5.33;;;4.30;94.80;;;;;;7387439;19;20127;-76
2022/03/01 03:52:06;;;;;;;9.97;5.40;;;4.30;95.00;;;;;;7388995;19;20123;-76
2022/03/01 03:54:32;;;;;;;8.33;5.20;;;4.30;95.30;;;;;;7386612;19;20146;-77
2022/03/01 03:56:58;;;;;;;10.50;5.07;;;4.30;95.10;;;;;;7390163;19;20149;-77
2022/03/01 03:59:24;;;;;;;10.07;5.73;;;4.30;95.10;;;;;;7386822;19;20135;-76
2022/03/01 04:01:50;;;;;;;8.13;4.97;;;4.30;95.10;;;;;;7386939;19;20154;-77
2022/03/01 04:04:16;;;;;;;8.87;5.00;;;4.20;95.30;;;;;;7387057;19;20143;-77
2022/03/01 04:06:43;;;;;;;9.00;4.77;;;4.30;95.20;;;;;;7386269;19;20138;-76
2022/03/01 04:09:09;;;;;;;9.90;5.37;;;4.20;95.20;;;;;;7389234;19;20123;-78
2022/03/01 04:11:34;;;;;;;9.60;5.23;;;4.30;95.40;;;;;;7386976;19;20138;-76
2022/03/01 04:14:01;;;;;;;10.00;5.07;;;4.30;95.40;;;;;;7385264;19;20180;-76
2022/03/01 04:16:30;;;;;;;11.40;5.27;;;4.30;95.30;;;;;;7386351;19;20126;-78
2022/03/01 04:18:55;;;;;;;7.93;5.10;;;4.30;95.30;;;;;;7386423;19;20130;-75
2022/03/01 04:21:21;;;;;;;10.07;5.40;;;4.30;95.40;;;;;;7387894;19;20457;-76
2022/03/01 04:23:49;;;;;;;12.33;5.20;;;4.20;95.30;;;;;;7385596;19;20138;-76
2022/03/01 04:26:16;;;;;;;9.33;5.47;;;4.10;95.50;;;;;;7385808;19;20153;-77
2022/03/01 04:28:42;;;;;;;10.13;5.13;;;4.10;95.40;;;;;;7387642;19;20151;-77
2022/03/01 04:31:08;;;;;;;9.77;5.20;;;4.10;95.50;;;;;;7386138;19;20518;-76
2022/03/01 04:33:34;;;;;;;10.10;4.70;;;4.20;95.40;;;;;;7385551;19;20147;-75
2022/03/01 04:36:02;;;;;;;11.10;5.17;;;4.00;95.80;;;;;;7384578;19;20509;-76
2022/03/01 04:38:28;;;;;;;9.20;4.87;;;3.90;95.80;;;;;;7386369;19;20131;-77
2022/03/01 04:40:55;;;;;;;10.13;5.00;;;4.00;95.80;;;;;;7389213;19;20138;-77
2022/03/01 04:43:21;;;;;;;7.10;4.40;;;4.00;95.60;;;;;;7385815;19;20148;-77
2022/03/01 04:45:47;;;;;;;10.23;5.77;;;4.00;95.50;;;;;;7385567;19;20139;-77
2022/03/01 04:48:13;;;;;;;8.90;4.73;;;4.10;95.50;;;;;;7385161;19;20198;-77
2022/03/01 04:50:39;;;;;;;9.93;5.13;;;4.10;95.50;;;;;;7387234;19;20138;-76
2022/03/01 04:53:05;;;;;;;9.30;5.17;;;3.90;95.70;;;;;;7385544;19;20622;-76
2022/03/01 04:55:32;;;;;;;9.90;5.20;;;4.00;95.60;;;;;;7386460;19;20146;-75
2022/03/01 04:57:58;;;;;;;9.13;4.73;;;4.00;95.00;;;;;;7384962;19;20287;-76
2022/03/01 05:00:25;;;;;;;8.80;4.97;;;3.70;95.30;;;;;;7385482;19;20143;-76
2022/03/01 05:02:51;;;;;;;13.77;6.10;;;3.70;95.60;;;;;;7385075;19;20157;-77
2022/03/01 05:05:17;;;;;;;9.53;4.93;;;3.80;95.90;;;;;;7387075;19;20134;-76
2022/03/01 05:07:46;;;;;;;13.33;5.20;;;3.90;96.00;;;;;;7384107;19;20155;-77
2022/03/01 05:10:17;;;;;;;9.13;5.10;;;3.50;96.00;;;;;;7385390;19;20156;-77
2022/03/01 05:12:52;;;;;;;8.33;4.90;;;3.40;96.40;;;;;;7385188;19;20131;-77
2022/03/01 05:15:19;;;;;;;8.30;4.90;;;3.30;96.90;;;;;;7377881;19;20147;-78
2022/03/01 05:17:45;;;;;;;8.37;4.73;;;3.60;96.00;;;;;;7380167;19;20165;-76
2022/03/01 05:20:12;;;;;;;9.47;5.03;;;3.70;95.90;;;;;;7383295;19;20131;-77
2022/03/01 05:22:38;;;;;;;10.67;5.73;;;3.50;95.80;;;;;;7385047;19;20138;-77
2022/03/01 05:25:06;;;;;;;10.17;5.30;;;3.50;96.10;;;;;;7387151;19;20135;-76
2022/03/01 05:27:32;;;;;;;9.50;5.23;;;3.40;96.30;;;;;;7384867;19;20131;-77
2022/03/01 05:29:58;;;;;;;10.73;5.40;;;3.60;96.10;;;;;;7386499;19;20131;-77
2022/03/01 05:32:24;;;;;;;8.17;5.13;;;3.70;95.90;;;;;;7384497;19;20130;-77
2022/03/01 05:34:50;;;;;;;10.77;5.33;;;3.70;95.60;;;;;;7387610;19;20275;-78
2022/03/01 05:37:15;;;;;;;9.73;4.70;;;3.60;95.80;;;;;;7391691;19;20624;-77
2022/03/01 05:39:41;;;;;;;10.37;5.40;;;3.70;95.60;;;;;;7391608;19;20147;-77
2022/03/01 05:42:08;;;;;;;10.57;5.10;;;3.60;95.70;;;;;;7395823;19;20161;-79
2022/03/01 05:44:34;;;;;;;9.63;5.60;;;3.70;95.30;;;;;;7391573;19;20146;-76
2022/03/01 05:47:00;;;;;;;8.17;4.90;;;3.30;95.80;;;;;;7389343;19;20170;-78
2022/03/01 05:49:26;;;;;;;9.13;4.87;;;2.90;96.00;;;;;;7393387;19;20135;-80
2022/03/01 05:51:52;;;;;;;8.03;4.57;;;2.80;96.30;;;;;;7391482;19;20226;-77
2022/03/01 05:54:19;;;;;;;10.00;5.40;;;2.80;96.90;;;;;;7391249;19;20131;-77
2022/03/01 05:56:44;;;;;;;9.50;5.23;;;3.20;96.60;;;;;;7392149;19;20142;-78
2022/03/01 05:59:10;;;;;;;8.40;5.07;;;3.30;96.50;;;;;;7391347;19;20601;-78
2022/03/01 06:01:36;;;;;;;10.17;5.27;;;3.10;96.50;;;;;;7391222;19;20154;-76
2022/03/01 06:04:02;;;;;;;9.43;5.73;;;3.00;96.50;;;;;;7392333;19;20153;-76
2022/03/01 06:06:28;;;;;;;9.30;5.27;;;3.20;96.20;;;;;;7390575;19;20555;-75
2022/03/01 06:08:53;;;;;;;8.00;4.70;;;3.30;96.00;;;;;;7392910;19;20127;-76
2022/03/01 06:11:19;;;;;;;8.63;5.23;;;3.30;96.00;;;;;;7390577;19;20490;-77
2022/03/01 06:13:45;;;;;;;9.00;5.30;;;3.40;96.10;;;;;;7390349;19;20481;-76
2022/03/01 06:16:12;;;;;;;9.23;5.13;;;3.50;95.80;;;;;;7387700;19;20134;-77
2022/03/01 06:18:38;;;;;;;12.63;5.10;;;3.30;95.70;;;;;;7392347;19;20130;-78
2022/03/01 06:21:04;;;;;;;11.37;5.30;;;3.10;96.10;;;;;;7390528;19;20159;-77
2022/03/01 06:23:31;;;;;;;8.77;5.40;;;3.10;96.80;;;;;;7391331;19;20141;-77
2022/03/01 06:25:57;;;;;;;11.77;5.67;;;3.10;96.70;;;;;;7389825;19;20151;-77
2022/03/01 06:28:23;;;;;;;9.53;5.53;;;3.30;97.10;;;;;;7392915;19;20134;-79
2022/03/01 06:30:49;;;;;;;10.73;5.30;;;3.40;97.00;;;;;;7391802;19;20135;-78
2022/03/01 06:33:18;;;;;;;13.40;5.67;;;3.60;96.60;;;;;;7394892;19;20161;-79
2022/03/01 06:35:44;;;;;;;16.27;6.17;;;3.70;96.50;;;;;;7388178;19;20126;-75
2022/03/01 06:38:10;;;;;;;11.60;5.80;;;3.50;96.90;;;;;;7393006;19;20155;-77
2022/03/01 06:40:36;;;;;;;9.27;5.23;;;3.30;97.40;;;;;;7390809;19;20230;-77
2022/03/01 06:43:03;;;;;;;9.83;5.10;;;3.00;97.60;;;;;;7391835;19;20143;-76
2022/03/01 06:45:29;;;;;;;9.47;5.33;;;2.80;98.20;;;;;;7390541;19;20175;-76
2022/03/01 06:47:55;;;;;;;12.67;6.57;;;3.10;98.30;;;;;;7390846;19;20122;-76
2022/03/01 06:50:21;;;;;;;12.70;5.70;;;3.20;97.80;;;;;;7391759;19;20141;-76
2022/03/01 06:52:47;;;;;;;10.90;5.47;;;3.40;97.60;;;;;;7393829;19;20205;-78
2022/03/01 06:55:14;;;;;;;18.30;6.17;;;3.50;97.30;;;;;;7391312;19;20134;-75
2022/03/01 06:57:41;;;;;;;11.47;5.77;;;3.60;97.20;;;;;;7392766;19;20232;-80
2022/03/01 07:00:09;;;;;;;8.20;5.23;;;3.50;97.10;;;;;;7391004;19;20150;-77
2022/03/01 07:02:38;;;;;;;10.43;5.53;;;3.50;97.20;;;;;;7392106;19;20198;-77
2022/03/01 07:05:09;;;;;;;10.30;6.20;;;3.70;96.80;;;;;;7393362;19;20130;-78
2022/03/01 07:07:35;;;;;;;12.30;6.17;;;3.70;96.50;;;;;;7391689;19;20141;-77
2022/03/01 07:10:02;;;;;;;12.97;6.60;;;3.80;96.70;;;;;;7392267;19;20157;-76
2022/03/01 07:12:28;;;;;;;13.90;5.83;;;3.80;96.20;;;;;;7389315;19;20163;-77
2022/03/01 07:14:53;;;;;;;9.97;5.73;;;3.50;96.50;;;;;;7386323;19;20159;-78
2022/03/01 07:17:20;;;;;;;10.93;6.60;;;3.40;97.10;;;;;;7388214;19;20629;-77
2022/03/01 07:19:47;;;;;;;11.60;6.50;;;3.10;97.30;;;;;;7384352;19;20142;-78
2022/03/01 07:22:13;;;;;;;13.67;6.17;;;3.30;97.30;;;;;;7384770;19;20147;-77
2022/03/01 07:24:38;;;;;;;11.50;6.13;;;3.50;97.00;;;;;;7386277;19;20122;-77
2022/03/01 07:27:04;;;;;;;12.60;6.70;;;3.80;97.00;;;;;;7379397;19;20604;-77
2022/03/01 07:29:33;;;;;;;14.93;6.67;;;3.60;97.00;;;;;;7387890;19;20619;-75
2022/03/01 07:32:00;;;;;;;9.60;5.63;;;3.70;96.80;;;;;;7389053;19;20139;-76
2022/03/01 07:34:26;;;;;;;11.73;5.80;;;3.90;96.40;;;;;;7392580;19;20141;-77
2022/03/01 07:36:52;;;;;;;10.37;5.47;;;3.90;95.30;;;;;;7389779;19;20146;-76
2022/03/01 07:39:18;;;;;;;10.47;5.77;;;3.80;95.80;;;;;;7392797;19;20208;-76
2022/03/01 07:41:44;;;;;;;11.43;6.13;;;3.80;96.10;;;;;;7392682;19;20184;-77
2022/03/01 07:44:10;;;;;;;11.40;7.30;;;3.70;96.40;;;;;;7389073;19;20399;-75
2022/03/01 07:46:36;;;;;;;12.77;6.63;;;3.90;95.80;;;;;;7381862;19;20167;-75
2022/03/01 07:49:02;;;;;;;14.90;6.60;;;3.80;95.60;;;;;;7389072;19;20138;-76
2022/03/01 07:51:27;;;;;;;11.73;6.00;;;3.80;96.00;;;;;;7388606;19;20137;-76
2022/03/01 07:53:53;;;;;;;12.37;6.03;;;4.00;95.70;;;;;;7389871;19;20574;-76
2022/03/01 07:56:22;;;;;;;10.30;6.30;;;4.10;95.70;;;;;;7389553;19;20662;-76
2022/03/01 07:58:48;;;;;;;13.13;5.90;;;4.30;95.00;;;;;;7388490;19;20131;-75
2022/03/01 08:01:15;;;;;;;10.83;5.53;;;4.20;94.80;;;;;;7385545;19;20242;-77
2022/03/01 08:03:41;;;;;;;10.10;5.93;;;4.00;94.90;;;;;;7386897;19;20145;-76
2022/03/01 08:06:10;;;;;;;11.30;5.73;;;4.10;94.50;;;;;;7389837;19;20154;-76
2022/03/01 08:08:40;;;;;;;8.67;5.60;;;4.20;94.20;;;;;;7389679;19;20155;-76
2022/03/01 08:11:06;;;;;;;12.73;5.13;;;4.20;94.00;;;;;;7389922;19;20485;-76
2022/03/01 08:13:32;;;;;;;8.60;5.00;;;4.20;93.90;;;;;;7389945;19;20209;-76
2022/03/01 08:15:59;;;;;;;9.17;5.67;;;4.00;94.60;;;;;;7384440;19;20163;-76
2022/03/01 08:18:28;;;;;;;10.60;5.50;;;4.00;93.90;;;;;;7385337;19;20469;-76
2022/03/01 08:20:57;;;;;;;10.10;5.73;;;4.20;94.00;;;;;;7385938;19;20137;-75
2022/03/01 08:23:23;;;;;;;10.57;5.07;;;4.50;93.90;;;;;;7386695;19;20147;-75
2022/03/01 08:25:49;;;;;;;9.70;5.43;;;4.50;93.40;;;;;;7386307;19;20162;-76
2022/03/01 08:28:16;;;;;;;11.37;5.47;;;4.40;93.20;;;;;;7387964;19;20127;-77
2022/03/01 08:30:42;;;;;;;10.17;5.30;;;4.40;93.60;;;;;;7386396;19;20170;-77
2022/03/01 08:33:08;;;;;;;11.00;5.27;;;4.40;93.10;;;;;;7386310;19;20194;-77
2022/03/01 08:35:34;;;;;;;9.83;5.43;;;4.40;93.20;;;;;;7389886;19;20150;-76
2022/03/01 08:38:06;;;;;;;14.57;6.17;;;4.50;93.20;;;;;;7385115;19;20135;-77
2022/03/01 08:40:37;;;;;;;10.50;4.70;;;4.60;93.00;;;;;;7387096;19;20154;-76
2022/03/01 08:43:04;;;;;;;10.57;5.13;;;4.80;92.80;;;;;;7385686;19;20491;-76
2022/03/01 08:45:31;;;;;;;10.93;5.30;;;4.80;92.80;;;;;;7385926;19;20605;-76
2022/03/01 08:47:57;;;;;;;10.00;5.40;;;4.90;92.90;;;;;;7384598;19;20209;-76
2022/03/01 08:50:23;;;;;;;7.57;4.83;;;4.50;93.00;;;;;;7386480;19;20138;-75
2022/03/01 08:52:50;;;;;;;11.07;5.53;;;4.40;93.90;;;;;;7385271;19;20611;-77
2022/03/01 08:55:15;;;;;;;10.63;5.87;;;4.80;93.90;;;;;;7387246;19;20131;-76
2022/03/01 08:57:41;;;;;;;8.37;5.10;;;4.90;93.80;;;;;;7384195;19;20134;-77
2022/03/01 09:00:10;;;;;;;9.07;5.17;;;4.90;92.90;;;;;;7384736;19;20146;-76
2022/03/01 09:02:36;;;;;;;8.47;4.83;;;5.00;92.70;;;;;;7384756;19;20130;-76
2022/03/01 09:05:02;;;;;;;10.07;4.83;;;5.00;92.70;;;;;;7384920;19;20167;-75
2022/03/01 09:07:28;;;;;;;8.77;5.00;;;5.20;93.00;;;;;;7385559;19;20149;-76
2022/03/01 09:09:54;;;;;;;10.17;4.73;;;5.40;91.80;;;;;;7395549;19;20479;-76
2022/03/01 09:12:19;;;;;;;8.40;5.00;;;5.30;92.00;;;;;;7392758;19;20131;-76
2022/03/01 09:14:45;;;;;;;7.47;4.90;;;5.30;91.70;;;;;;7393786;19;20192;-76
2022/03/01 09:17:11;;;;;;;9.20;5.10;;;5.40;91.80;;;;;;7386622;19;20638;-76
2022/03/01 09:19:37;;;;;;;7.03;4.43;;;5.40;92.50;;;;;;7388192;19;20520;-76
2022/03/01 09:22:03;;;;;;;9.57;5.03;;;5.40;92.00;;;;;;7389897;19;20135;-76
2022/03/01 09:24:29;;;;;;;8.00;4.63;;;5.30;91.40;;;;;;7392195;19;20221;-76
2022/03/01 09:26:57;;;;;;;11.10;5.60;;;5.10;92.10;;;;;;7392140;19;20231;-76
2022/03/01 09:29:23;;;;;;;9.00;4.73;;;5.40;91.60;;;;;;7391380;19;20131;-76
2022/03/01 09:31:50;;;;;;;8.87;5.30;;;5.40;91.30;;;;;;7392025;19;20150;-76
2022/03/01 09:34:16;;;;;;;8.47;5.23;;;5.50;92.10;;;;;;7391421;19;20213;-75
2022/03/01 09:36:43;;;;;;;8.23;4.43;;;5.70;91.00;;;;;;7390183;19;20152;-77
2022/03/01 09:39:09;;;;;;;11.37;5.40;;;5.90;91.40;;;;;;7391119;19;20149;-76
2022/03/01 09:41:37;;;;;;;8.33;5.13;;;6.00;91.30;;;;;;7394701;19;20197;-77
2022/03/01 09:44:03;;;;;;;9.90;4.53;;;5.90;91.20;;;;;;7390737;19;20126;-76
2022/03/01 09:46:29;;;;;;;7.33;4.13;;;5.90;90.60;;;;;;7391421;19;20191;-76
2022/03/01 09:48:56;;;;;;;7.80;5.00;;;6.00;90.50;;;;;;7390335;19;20127;-76
2022/03/01 09:51:22;;;;;;;8.93;4.47;;;6.20;91.30;;;;;;7389459;19;20194;-76
2022/03/01 09:53:49;;;;;;;6.50;4.20;;;6.40;90.60;;;;;;7392041;19;20127;-76
2022/03/01 09:56:15;;;;;;;9.23;5.33;;;6.40;90.00;;;;;;7390876;19;20182;-76
2022/03/01 09:58:46;;;;;;;9.23;4.80;;;6.50;89.50;;;;;;7390268;19;20147;-75
2022/03/01 10:01:13;;;;;;;7.57;4.40;;;6.60;87.60;;;;;;7392073;19;20161;-76
2022/03/01 10:03:39;;;;;;;9.20;4.70;;;6.80;89.90;;;;;;7391693;19;20119;-76
2022/03/01 10:06:11;;;;;;;6.90;4.37;;;6.80;87.70;;;;;;7391171;19;20150;-75
2022/03/01 10:08:37;;;;;;;10.97;4.50;;;6.70;87.40;;;;;;7391866;19;20214;-75
2022/03/01 10:11:03;;;;;;;7.67;4.63;;;6.80;87.20;;;;;;7388531;19;20126;-76
2022/03/01 10:13:32;;;;;;;7.17;3.90;;;6.80;87.70;;;;;;7389861;19;20214;-76
2022/03/01 10:16:17;;;;;;;7.17;4.33;;;7.00;88.20;;;;;;7388264;19;20147;-76
2022/03/01 10:18:53;;;;;;;9.63;5.00;;;7.20;85.50;;;;;;7389151;19;20225;-76
2022/03/01 10:21:23;;;;;;;9.13;4.67;;;7.40;85.80;;;;;;7387175;19;20158;-77
2022/03/01 10:23:55;;;;;;;7.43;4.17;;;7.50;84.60;;;;;;7389237;19;20131;-75
2022/03/01 10:26:28;;;;;;;6.87;4.50;;;7.60;84.40;;;;;;7390208;19;20206;-76
2022/03/01 10:28:55;;;;;;;8.43;4.87;;;7.60;84.40;;;;;;7389970;19;20154;-76
2022/03/01 10:31:27;;;;;;;8.47;4.90;;;7.60;83.50;;;;;;7389708;19;20174;-76
2022/03/01 10:34:00;;;;;;;6.50;4.00;;;7.60;84.00;;;;;;7390092;19;20142;-74
2022/03/01 10:36:49;;;;;;;9.53;4.63;;;7.80;84.50;;;;;;7386895;19;20138;-76
2022/03/01 10:39:21;;;;;;;7.50;4.30;;;7.90;82.60;;;;;;7390037;19;20573;-77
2022/03/01 10:41:49;;;;;;;7.23;4.50;;;7.80;81.80;;;;;;7392733;19;20179;-77
2022/03/01 10:44:18;;;;;;;6.73;3.73;;;7.90;82.70;;;;;;7389305;19;20134;-76
2022/03/01 10:46:48;;;;;;;6.50;4.03;;;8.00;82.50;;;;;;7387378;19;20147;-76
2022/03/01 10:49:17;;;;;;;10.30;4.07;;;7.80;80.70;;;;;;7388939;19;20149;-77
2022/03/01 10:52:06;;;;;;;8.33;4.00;;;7.90;82.10;;;;;;7389119;19;20130;-77
2022/03/01 10:54:36;;;;;;;12.40;4.60;;;7.90;81.40;;;;;;7388597;19;20857;-77
2022/03/01 10:57:04;;;;;;;7.70;4.17;;;8.00;82.70;;;;;;7390103;19;20485;-76
2022/03/01 10:59:32;;;;;;;6.43;4.10;;;8.30;82.20;;;;;;7389037;19;20143;-77
2022/03/01 11:01:58;;;;;;;7.13;4.03;;;8.00;78.90;;;;;;7388678;19;20135;-76
2022/03/01 11:04:25;;;;;;;5.90;3.67;;;8.10;80.80;;;;;;7388259;19;20147;-77
2022/03/01 11:06:54;;;;;;;5.47;3.77;;;8.10;79.30;;;;;;7388278;19;20328;-77
2022/03/01 11:09:24;;;;;;;7.37;3.90;;;8.10;79.40;;;;;;7390661;19;20218;-76
2022/03/01 11:11:51;;;;;;;5.17;3.73;;;8.30;79.40;;;;;;7388501;19;20153;-76
2022/03/01 11:14:33;;;;;;;9.53;4.43;;;8.10;79.50;;;;;;7388032;19;20527;-76
2022/03/01 11:17:07;;;;;;;5.77;3.80;;;8.20;78.30;;;;;;7380338;19;20576;-76
2022/03/01 11:19:54;;;;;;;8.37;4.73;;;8.40;77.90;;;;;;7381781;19;20137;-76
2022/03/01 11:22:50;;;;;;;8.60;4.07;;;8.50;77.40;;;;;;7375672;19;20724;-77
2022/03/01 11:25:17;;;;;;;6.97;4.40;;;8.50;77.30;;;;;;7375229;19;20131;-77
2022/03/01 11:27:45;;;;;;;6.17;3.83;;;8.40;77.00;;;;;;7376600;19;20648;-75
2022/03/01 11:30:12;;;;;;;7.50;3.63;;;8.30;75.40;;;;;;7376415;19;20146;-76
2022/03/01 11:32:42;;;;;;;5.93;3.67;;;8.30;75.50;;;;;;7378104;19;20924;-76
2022/03/01 11:35:16;;;;;;;5.83;3.70;;;8.20;74.20;;;;;;7382363;19;20130;-75
2022/03/01 11:37:44;;;;;;;6.77;4.13;;;8.20;75.90;;;;;;7390305;19;20593;-77
2022/03/01 11:40:21;;;;;;;6.23;3.70;;;8.50;76.40;;;;;;7390212;19;20138;-76
2022/03/01 11:42:48;;;;;;;8.07;5.10;;;8.50;75.20;;;;;;7388678;19;20123;-76
2022/03/01 11:45:15;;;;;;;7.10;4.13;;;8.90;72.30;;;;;;7387385;19;20129;-75
2022/03/01 11:47:42;;;;;;;7.37;3.97;;;8.90;72.00;;;;;;7385102;19;20142;-77
2022/03/01 11:50:14;;;;;;;7.03;3.90;;;8.70;72.30;;;;;;7386962;19;20556;-76
2022/03/01 11:52:58;;;;;;;6.27;3.73;;;8.60;73.70;;;;;;7386913;19;20137;-77
2022/03/01 11:55:34;;;;;;;6.17;3.80;;;8.30;74.60;;;;;;7386542;19;20238;-77
2022/03/01 11:58:01;;;;;;;7.23;4.20;;;8.60;74.90;;;;;;7386033;19;20150;-76
2022/03/01 12:00:29;;;;;;;6.30;3.87;;;8.70;75.00;;;;;;7388030;19;20154;-76
2022/03/01 12:02:58;;;;;;;6.40;3.97;;;8.70;76.40;;;;;;7386119;19;20206;-76
2022/03/01 12:05:25;;;;;;;7.33;3.83;;;8.80;76.10;;;;;;7385809;19;20167;-76
2022/03/01 12:07:54;;;;;;;6.83;4.17;;;8.80;76.30;;;;;;7385315;19;20146;-76
2022/03/01 12:10:23;;;;;;;8.97;5.43;;;8.90;75.70;;;;;;7386528;19;20318;-75
2022/03/01 12:12:52;;;;;;;8.23;4.70;;;8.80;75.00;;;;;;7385475;19;20251;-76
2022/03/01 12:15:32;;;;;;;5.97;3.90;;;8.90;75.90;;;;;;7383294;19;20245;-76
2022/03/01 12:18:13;;;;;;;7.87;4.47;;;9.20;75.60;;;;;;7385320;19;20162;-76
2022/03/01 12:20:41;;;;;;;6.50;4.40;;;9.40;74.70;;;;;;7384953;19;20130;-76
2022/03/01 12:23:08;;;;;;;6.20;3.97;;;9.20;74.60;;;;;;7387366;19;20127;-76
2022/03/01 12:25:35;;;;;;;6.93;4.40;;;9.20;75.10;;;;;;7387079;19;20135;-76
2022/03/01 12:28:03;;;;;;;6.53;4.00;;;9.10;74.10;;;;;;7384639;19;20150;-76
2022/03/01 12:30:32;;;;;;;7.43;4.63;;;9.10;74.20;;;;;;7385020;19;20142;-77
2022/03/01 12:32:59;;;;;;;6.53;4.33;;;9.10;75.10;;;;;;7385286;19;20829;-77
2022/03/01 12:35:27;;;;;;;5.67;3.87;;;9.40;74.60;;;;;;7385867;19;20154;-77
2022/03/01 12:38:04;;;;;;;7.40;4.10;;;9.50;74.00;;;;;;7383360;19;20135;-75
2022/03/01 12:40:31;;;;;;;5.57;3.90;;;9.60;73.00;;;;;;7385595;19;20166;-76
2022/03/01 12:43:11;;;;;;;7.33;4.10;;;9.60;72.70;;;;;;7384709;19;20142;-77
2022/03/01 12:45:43;;;;;;;5.23;3.50;;;9.60;72.10;;;;;;7393992;19;20134;-76
2022/03/01 12:48:14;;;;;;;5.53;3.40;;;9.50;72.50;;;;;;7391062;19;20488;-76
2022/03/01 12:50:51;;;;;;;5.57;3.30;;;9.60;72.20;;;;;;7394121;19;20138;-76
2022/03/01 12:53:18;;;;;;;5.20;3.57;;;9.50;71.90;;;;;;7392127;19;20218;-76